sensor_id;sensor_type;location;lat;lon;timestamp;P1;durP1;ratioP1;P2;durP2;ratioP2
52894;SDS011;38759;53.396;6.722;2023-06-04T00:01:09;7.40;;;2.03;;
52894;SDS011;38759;53.396;6.722;2023-06-04T00:03:35;5.07;;;1.75;;
52894;SDS011;38759;53.396;6.722;2023-06-04T00:06:00;9.70;;;2.30;;
52894;SDS011;38759;53.396;6.722;2023-06-04T00:08:26;7.20;;;1.90;;
52894;SDS011;38759;53.396;6.722;2023-06-04T00:10:52;8.85;;;1.88;;
52894;SDS011;38759;53.396;6.722;2023-06-04T00:13:17;6.68;;;2.10;;
52894;SDS011;38759;53.396;6.722;2023-06-04T00:15:43;5.07;;;1.80;;
52894;SDS011;38759;53.396;6.722;2023-06-04T00:18:09;5.68;;;2.10;;
52894;SDS011;38759;53.396;6.722;2023-06-04T00:20:36;8.18;;;2.42;;
52894;SDS011;38759;53.396;6.722;2023-06-04T00:23:02;5.70;;;2.30;;
52894;SDS011;38759;53.396;6.722;2023-06-04T00:25:28;7.68;;;2.55;;
52894;SDS011;38759;53.396;6.722;2023-06-04T00:27:54;8.52;;;2.70;;
52894;SDS011;38759;53.396;6.722;2023-06-04T00:30:19;10.23;;;3.17;;
52894;SDS011;38759;53.396;6.722;2023-06-04T00:32:45;7.18;;;2.50;;
52894;SDS011;38759;53.396;6.722;2023-06-04T00:35:12;9.05;;;2.90;;
52894;SDS011;38759;53.396;6.722;2023-06-04T00:37:38;13.70;;;3.45;;
52894;SDS011;38759;53.396;6.722;2023-06-04T00:40:04;15.57;;;3.08;;
52894;SDS011;38759;53.396;6.722;2023-06-04T00:42:31;5.75;;;2.50;;
52894;SDS011;38759;53.396;6.722;2023-06-04T00:44:57;9.90;;;2.83;;
52894;SDS011;38759;53.396;6.722;2023-06-04T00:47:23;13.70;;;2.70;;
52894;SDS011;38759;53.396;6.722;2023-06-04T00:49:49;7.70;;;2.78;;
52894;SDS011;38759;53.396;6.722;2023-06-04T00:52:15;5.72;;;2.22;;
52894;SDS011;38759;53.396;6.722;2023-06-04T00:54:41;20.27;;;3.22;;
52894;SDS011;38759;53.396;6.722;2023-06-04T00:57:08;6.28;;;2.50;;
52894;SDS011;38759;53.396;6.722;2023-06-04T00:59:34;6.38;;;2.67;;
52894;SDS011;38759;53.396;6.722;2023-06-04T01:02:11;7.53;;;2.10;;
52894;SDS011;38759;53.396;6.722;2023-06-04T01:07:41;4.68;;;2.30;;
52894;SDS011;38759;53.396;6.722;2023-06-04T01:10:12;6.57;;;2.13;;
52894;SDS011;38759;53.396;6.722;2023-06-04T01:12:41;9.05;;;2.30;;
52894;SDS011;38759;53.396;6.722;2023-06-04T01:15:08;4.82;;;3.03;;
52894;SDS011;38759;53.396;6.722;2023-06-04T01:17:41;8.98;;;2.50;;
52894;SDS011;38759;53.396;6.722;2023-06-04T01:25:58;5.38;;;2.08;;
52894;SDS011;38759;53.396;6.722;2023-06-04T01:28:28;6.90;;;2.30;;
52894;SDS011;38759;53.396;6.722;2023-06-04T01:30:55;7.07;;;2.60;;
52894;SDS011;38759;53.396;6.722;2023-06-04T01:33:22;9.18;;;2.47;;
52894;SDS011;38759;53.396;6.722;2023-06-04T01:35:48;7.60;;;2.30;;
52894;SDS011;38759;53.396;6.722;2023-06-04T01:38:14;5.53;;;2.30;;
52894;SDS011;38759;53.396;6.722;2023-06-04T01:40:40;10.48;;;2.50;;
52894;SDS011;38759;53.396;6.722;2023-06-04T01:43:06;5.28;;;2.42;;
52894;SDS011;38759;53.396;6.722;2023-06-04T01:45:32;8.05;;;2.47;;
52894;SDS011;38759;53.396;6.722;2023-06-04T01:48:00;6.30;;;2.53;;
52894;SDS011;38759;53.396;6.722;2023-06-04T01:50:26;8.93;;;2.60;;
52894;SDS011;38759;53.396;6.722;2023-06-04T01:52:53;6.05;;;2.13;;
52894;SDS011;38759;53.396;6.722;2023-06-04T01:55:19;5.45;;;2.17;;
52894;SDS011;38759;53.396;6.722;2023-06-04T01:57:45;2.58;;;1.98;;
52894;SDS011;38759;53.396;6.722;2023-06-04T02:00:12;5.93;;;2.33;;
52894;SDS011;38759;53.396;6.722;2023-06-04T02:02:40;4.47;;;2.65;;
52894;SDS011;38759;53.396;6.722;2023-06-04T02:05:07;7.20;;;2.30;;
52894;SDS011;38759;53.396;6.722;2023-06-04T02:07:33;5.63;;;2.17;;
52894;SDS011;38759;53.396;6.722;2023-06-04T02:10:00;4.70;;;2.10;;
52894;SDS011;38759;53.396;6.722;2023-06-04T02:12:26;4.15;;;2.25;;
52894;SDS011;38759;53.396;6.722;2023-06-04T02:14:51;5.78;;;2.28;;
52894;SDS011;38759;53.396;6.722;2023-06-04T02:17:17;3.60;;;2.38;;
52894;SDS011;38759;53.396;6.722;2023-06-04T02:19:43;4.75;;;2.10;;
52894;SDS011;38759;53.396;6.722;2023-06-04T02:22:19;7.40;;;2.65;;
52894;SDS011;38759;53.396;6.722;2023-06-04T02:24:45;7.43;;;2.70;;
52894;SDS011;38759;53.396;6.722;2023-06-04T02:27:13;8.40;;;3.00;;
52894;SDS011;38759;53.396;6.722;2023-06-04T02:29:39;5.88;;;2.50;;
52894;SDS011;38759;53.396;6.722;2023-06-04T02:32:05;4.18;;;2.40;;
52894;SDS011;38759;53.396;6.722;2023-06-04T02:34:32;7.00;;;3.03;;
52894;SDS011;38759;53.396;6.722;2023-06-04T02:36:59;4.53;;;2.95;;
52894;SDS011;38759;53.396;6.722;2023-06-04T02:39:25;8.57;;;2.80;;
52894;SDS011;38759;53.396;6.722;2023-06-04T02:41:54;4.78;;;2.95;;
52894;SDS011;38759;53.396;6.722;2023-06-04T02:44:20;8.13;;;3.00;;
52894;SDS011;38759;53.396;6.722;2023-06-04T02:46:46;5.82;;;2.90;;
52894;SDS011;38759;53.396;6.722;2023-06-04T02:49:11;6.90;;;2.95;;
52894;SDS011;38759;53.396;6.722;2023-06-04T02:51:41;9.40;;;2.97;;
52894;SDS011;38759;53.396;6.722;2023-06-04T02:54:10;13.52;;;2.80;;
52894;SDS011;38759;53.396;6.722;2023-06-04T02:56:36;7.85;;;3.53;;
52894;SDS011;38759;53.396;6.722;2023-06-04T02:59:02;5.22;;;2.67;;
52894;SDS011;38759;53.396;6.722;2023-06-04T03:01:29;4.93;;;2.83;;
52894;SDS011;38759;53.396;6.722;2023-06-04T03:03:55;3.50;;;2.63;;
52894;SDS011;38759;53.396;6.722;2023-06-04T03:06:22;6.32;;;3.17;;
52894;SDS011;38759;53.396;6.722;2023-06-04T03:08:48;4.50;;;2.70;;
52894;SDS011;38759;53.396;6.722;2023-06-04T03:11:16;7.25;;;2.88;;
52894;SDS011;38759;53.396;6.722;2023-06-04T03:13:44;6.78;;;3.00;;
52894;SDS011;38759;53.396;6.722;2023-06-04T03:16:10;4.50;;;2.58;;
52894;SDS011;38759;53.396;6.722;2023-06-04T03:18:36;4.97;;;2.70;;
52894;SDS011;38759;53.396;6.722;2023-06-04T03:21:02;6.18;;;3.10;;
52894;SDS011;38759;53.396;6.722;2023-06-04T03:23:30;7.13;;;2.30;;
52894;SDS011;38759;53.396;6.722;2023-06-04T03:25:57;3.83;;;2.40;;
52894;SDS011;38759;53.396;6.722;2023-06-04T03:28:22;3.65;;;2.88;;
52894;SDS011;38759;53.396;6.722;2023-06-04T03:30:48;5.30;;;2.63;;
52894;SDS011;38759;53.396;6.722;2023-06-04T03:33:14;3.15;;;2.70;;
52894;SDS011;38759;53.396;6.722;2023-06-04T03:35:40;3.65;;;2.53;;
52894;SDS011;38759;53.396;6.722;2023-06-04T03:38:07;4.50;;;2.53;;
52894;SDS011;38759;53.396;6.722;2023-06-04T03:40:33;3.80;;;2.17;;
52894;SDS011;38759;53.396;6.722;2023-06-04T03:42:58;3.70;;;2.10;;
52894;SDS011;38759;53.396;6.722;2023-06-04T03:45:25;7.50;;;2.17;;
52894;SDS011;38759;53.396;6.722;2023-06-04T03:47:51;6.95;;;2.67;;
52894;SDS011;38759;53.396;6.722;2023-06-04T03:50:20;4.03;;;2.70;;
52894;SDS011;38759;53.396;6.722;2023-06-04T03:52:46;5.30;;;2.75;;
52894;SDS011;38759;53.396;6.722;2023-06-04T03:55:13;5.40;;;2.55;;
52894;SDS011;38759;53.396;6.722;2023-06-04T03:57:38;5.53;;;3.13;;
52894;SDS011;38759;53.396;6.722;2023-06-04T04:00:07;6.05;;;3.35;;
52894;SDS011;38759;53.396;6.722;2023-06-04T04:02:37;5.97;;;3.22;;
52894;SDS011;38759;53.396;6.722;2023-06-04T04:05:03;6.38;;;3.40;;
52894;SDS011;38759;53.396;6.722;2023-06-04T04:07:29;5.22;;;3.72;;
52894;SDS011;38759;53.396;6.722;2023-06-04T04:09:55;12.23;;;3.67;;
52894;SDS011;38759;53.396;6.722;2023-06-04T04:12:20;8.80;;;3.97;;
52894;SDS011;38759;53.396;6.722;2023-06-04T04:14:46;4.53;;;3.50;;
52894;SDS011;38759;53.396;6.722;2023-06-04T04:17:13;7.25;;;3.30;;
52894;SDS011;38759;53.396;6.722;2023-06-04T04:19:39;9.70;;;3.67;;
52894;SDS011;38759;53.396;6.722;2023-06-04T04:22:05;5.75;;;3.15;;
52894;SDS011;38759;53.396;6.722;2023-06-04T04:24:31;10.63;;;3.90;;
52894;SDS011;38759;53.396;6.722;2023-06-04T04:26:59;14.30;;;3.70;;
52894;SDS011;38759;53.396;6.722;2023-06-04T04:29:25;11.88;;;3.35;;
52894;SDS011;38759;53.396;6.722;2023-06-04T04:31:52;9.23;;;2.92;;
52894;SDS011;38759;53.396;6.722;2023-06-04T04:34:21;8.75;;;2.80;;
52894;SDS011;38759;53.396;6.722;2023-06-04T04:36:48;11.43;;;3.40;;
52894;SDS011;38759;53.396;6.722;2023-06-04T04:39:22;6.72;;;2.30;;
52894;SDS011;38759;53.396;6.722;2023-06-04T04:41:49;10.98;;;2.47;;
52894;SDS011;38759;53.396;6.722;2023-06-04T04:44:15;9.50;;;2.80;;
52894;SDS011;38759;53.396;6.722;2023-06-04T04:46:40;12.30;;;2.80;;
52894;SDS011;38759;53.396;6.722;2023-06-04T04:49:06;5.30;;;1.98;;
52894;SDS011;38759;53.396;6.722;2023-06-04T04:51:32;13.13;;;2.30;;
52894;SDS011;38759;53.396;6.722;2023-06-04T04:53:58;4.63;;;2.03;;
52894;SDS011;38759;53.396;6.722;2023-06-04T04:56:25;8.95;;;2.30;;
52894;SDS011;38759;53.396;6.722;2023-06-04T04:58:52;8.18;;;1.90;;
52894;SDS011;38759;53.396;6.722;2023-06-04T05:01:18;14.55;;;2.47;;
52894;SDS011;38759;53.396;6.722;2023-06-04T05:03:44;5.47;;;1.77;;
52894;SDS011;38759;53.396;6.722;2023-06-04T05:06:09;5.93;;;1.90;;
52894;SDS011;38759;53.396;6.722;2023-06-04T05:08:35;7.82;;;2.17;;
52894;SDS011;38759;53.396;6.722;2023-06-04T05:11:01;11.88;;;2.00;;
52894;SDS011;38759;53.396;6.722;2023-06-04T05:13:27;10.38;;;2.40;;
52894;SDS011;38759;53.396;6.722;2023-06-04T05:15:53;6.57;;;2.08;;
52894;SDS011;38759;53.396;6.722;2023-06-04T05:18:18;7.00;;;2.20;;
52894;SDS011;38759;53.396;6.722;2023-06-04T05:20:45;8.90;;;2.42;;
52894;SDS011;38759;53.396;6.722;2023-06-04T05:23:12;13.50;;;2.80;;
52894;SDS011;38759;53.396;6.722;2023-06-04T05:25:39;3.80;;;1.85;;
52894;SDS011;38759;53.396;6.722;2023-06-04T05:28:06;8.45;;;2.38;;
52894;SDS011;38759;53.396;6.722;2023-06-04T05:30:32;7.72;;;2.22;;
52894;SDS011;38759;53.396;6.722;2023-06-04T05:33:00;5.72;;;1.83;;
52894;SDS011;38759;53.396;6.722;2023-06-04T05:35:26;9.02;;;2.30;;
52894;SDS011;38759;53.396;6.722;2023-06-04T05:37:51;9.43;;;2.10;;
52894;SDS011;38759;53.396;6.722;2023-06-04T05:40:20;8.77;;;2.13;;
52894;SDS011;38759;53.396;6.722;2023-06-04T05:42:47;16.13;;;2.85;;
52894;SDS011;38759;53.396;6.722;2023-06-04T05:45:13;6.72;;;2.00;;
52894;SDS011;38759;53.396;6.722;2023-06-04T05:47:39;7.93;;;2.47;;
52894;SDS011;38759;53.396;6.722;2023-06-04T05:50:05;6.78;;;2.30;;
52894;SDS011;38759;53.396;6.722;2023-06-04T05:52:32;8.38;;;2.33;;
52894;SDS011;38759;53.396;6.722;2023-06-04T05:54:59;10.90;;;3.05;;
52894;SDS011;38759;53.396;6.722;2023-06-04T05:57:25;10.73;;;2.30;;
52894;SDS011;38759;53.396;6.722;2023-06-04T05:59:51;9.88;;;1.90;;
52894;SDS011;38759;53.396;6.722;2023-06-04T06:02:16;3.85;;;1.73;;
52894;SDS011;38759;53.396;6.722;2023-06-04T06:04:42;11.65;;;2.15;;
52894;SDS011;38759;53.396;6.722;2023-06-04T06:07:08;9.93;;;1.92;;
52894;SDS011;38759;53.396;6.722;2023-06-04T06:09:34;8.70;;;1.63;;
52894;SDS011;38759;53.396;6.722;2023-06-04T06:12:00;6.70;;;1.73;;
52894;SDS011;38759;53.396;6.722;2023-06-04T06:14:26;9.15;;;1.95;;
52894;SDS011;38759;53.396;6.722;2023-06-04T06:16:52;9.48;;;2.08;;
52894;SDS011;38759;53.396;6.722;2023-06-04T06:19:18;10.07;;;2.00;;
52894;SDS011;38759;53.396;6.722;2023-06-04T06:21:43;7.47;;;1.80;;
52894;SDS011;38759;53.396;6.722;2023-06-04T06:24:09;8.20;;;1.88;;
52894;SDS011;38759;53.396;6.722;2023-06-04T06:26:35;6.82;;;1.90;;
52894;SDS011;38759;53.396;6.722;2023-06-04T06:29:02;5.85;;;1.95;;
52894;SDS011;38759;53.396;6.722;2023-06-04T06:31:27;6.72;;;1.77;;
52894;SDS011;38759;53.396;6.722;2023-06-04T06:33:53;9.07;;;1.63;;
52894;SDS011;38759;53.396;6.722;2023-06-04T06:36:19;6.00;;;1.77;;
52894;SDS011;38759;53.396;6.722;2023-06-04T06:38:45;4.88;;;1.67;;
52894;SDS011;38759;53.396;6.722;2023-06-04T06:41:11;8.77;;;2.25;;
52894;SDS011;38759;53.396;6.722;2023-06-04T06:43:37;7.28;;;1.85;;
52894;SDS011;38759;53.396;6.722;2023-06-04T06:46:03;4.45;;;1.77;;
52894;SDS011;38759;53.396;6.722;2023-06-04T06:48:29;7.88;;;1.80;;
52894;SDS011;38759;53.396;6.722;2023-06-04T06:50:54;3.92;;;1.50;;
52894;SDS011;38759;53.396;6.722;2023-06-04T06:53:20;4.40;;;1.95;;
52894;SDS011;38759;53.396;6.722;2023-06-04T06:55:46;10.32;;;2.03;;
52894;SDS011;38759;53.396;6.722;2023-06-04T06:58:12;6.22;;;1.80;;
52894;SDS011;38759;53.396;6.722;2023-06-04T07:00:38;5.75;;;1.80;;
52894;SDS011;38759;53.396;6.722;2023-06-04T07:03:03;4.82;;;1.50;;
52894;SDS011;38759;53.396;6.722;2023-06-04T07:05:29;8.80;;;1.92;;
52894;SDS011;38759;53.396;6.722;2023-06-04T07:07:55;9.35;;;1.80;;
52894;SDS011;38759;53.396;6.722;2023-06-04T07:10:22;8.13;;;1.60;;
52894;SDS011;38759;53.396;6.722;2023-06-04T07:12:48;3.70;;;1.42;;
52894;SDS011;38759;53.396;6.722;2023-06-04T07:15:14;5.80;;;1.90;;
52894;SDS011;38759;53.396;6.722;2023-06-04T07:17:40;4.55;;;1.35;;
52894;SDS011;38759;53.396;6.722;2023-06-04T07:20:05;6.60;;;1.77;;
52894;SDS011;38759;53.396;6.722;2023-06-04T07:22:33;8.15;;;2.00;;
52894;SDS011;38759;53.396;6.722;2023-06-04T07:24:59;5.20;;;1.80;;
52894;SDS011;38759;53.396;6.722;2023-06-04T07:27:25;6.20;;;2.25;;
52894;SDS011;38759;53.396;6.722;2023-06-04T07:29:51;4.00;;;1.55;;
52894;SDS011;38759;53.396;6.722;2023-06-04T07:32:17;5.50;;;1.70;;
52894;SDS011;38759;53.396;6.722;2023-06-04T07:34:43;6.65;;;1.85;;
52894;SDS011;38759;53.396;6.722;2023-06-04T07:37:09;3.17;;;1.40;;
52894;SDS011;38759;53.396;6.722;2023-06-04T07:39:35;7.38;;;2.17;;
52894;SDS011;38759;53.396;6.722;2023-06-04T07:42:01;8.90;;;1.55;;
52894;SDS011;38759;53.396;6.722;2023-06-04T07:44:27;5.25;;;1.48;;
52894;SDS011;38759;53.396;6.722;2023-06-04T07:46:52;7.22;;;2.10;;
52894;SDS011;38759;53.396;6.722;2023-06-04T07:49:18;1.90;;;1.20;;
52894;SDS011;38759;53.396;6.722;2023-06-04T07:51:45;4.40;;;1.70;;
52894;SDS011;38759;53.396;6.722;2023-06-04T07:54:11;7.18;;;1.60;;
52894;SDS011;38759;53.396;6.722;2023-06-04T07:56:39;5.55;;;1.90;;
52894;SDS011;38759;53.396;6.722;2023-06-04T07:59:05;6.50;;;2.05;;
52894;SDS011;38759;53.396;6.722;2023-06-04T08:01:31;3.30;;;1.30;;
52894;SDS011;38759;53.396;6.722;2023-06-04T08:03:57;5.00;;;1.90;;
52894;SDS011;38759;53.396;6.722;2023-06-04T08:06:24;7.20;;;2.00;;
52894;SDS011;38759;53.396;6.722;2023-06-04T08:08:51;5.20;;;1.48;;
52894;SDS011;38759;53.396;6.722;2023-06-04T08:11:21;4.07;;;1.73;;
52894;SDS011;38759;53.396;6.722;2023-06-04T08:13:49;7.47;;;1.92;;
52894;SDS011;38759;53.396;6.722;2023-06-04T08:16:15;6.35;;;2.10;;
52894;SDS011;38759;53.396;6.722;2023-06-04T08:18:40;5.03;;;1.30;;
52894;SDS011;38759;53.396;6.722;2023-06-04T08:21:10;4.70;;;1.90;;
52894;SDS011;38759;53.396;6.722;2023-06-04T08:23:36;4.25;;;1.60;;
52894;SDS011;38759;53.396;6.722;2023-06-04T08:26:02;2.35;;;1.50;;
52894;SDS011;38759;53.396;6.722;2023-06-04T08:28:28;5.25;;;1.98;;
52894;SDS011;38759;53.396;6.722;2023-06-04T08:30:53;6.65;;;2.05;;
52894;SDS011;38759;53.396;6.722;2023-06-04T08:33:19;5.47;;;2.10;;
52894;SDS011;38759;53.396;6.722;2023-06-04T08:35:45;5.93;;;1.80;;
52894;SDS011;38759;53.396;6.722;2023-06-04T08:38:11;4.45;;;1.63;;
52894;SDS011;38759;53.396;6.722;2023-06-04T08:40:37;5.32;;;2.10;;
52894;SDS011;38759;53.396;6.722;2023-06-04T08:43:02;2.72;;;1.30;;
52894;SDS011;38759;53.396;6.722;2023-06-04T08:45:30;9.07;;;2.20;;
52894;SDS011;38759;53.396;6.722;2023-06-04T08:48:02;4.55;;;1.95;;
52894;SDS011;38759;53.396;6.722;2023-06-04T08:50:29;2.78;;;1.45;;
52894;SDS011;38759;53.396;6.722;2023-06-04T08:52:56;5.60;;;1.23;;
52894;SDS011;38759;53.396;6.722;2023-06-04T08:55:23;6.97;;;2.17;;
52894;SDS011;38759;53.396;6.722;2023-06-04T08:57:49;7.78;;;2.15;;
52894;SDS011;38759;53.396;6.722;2023-06-04T09:00:17;3.90;;;1.50;;
52894;SDS011;38759;53.396;6.722;2023-06-04T09:02:44;5.43;;;1.95;;
52894;SDS011;38759;53.396;6.722;2023-06-04T09:05:11;4.90;;;1.95;;
52894;SDS011;38759;53.396;6.722;2023-06-04T09:07:44;5.70;;;2.13;;
52894;SDS011;38759;53.396;6.722;2023-06-04T09:10:12;4.50;;;1.90;;
52894;SDS011;38759;53.396;6.722;2023-06-04T09:12:43;6.15;;;1.73;;
52894;SDS011;38759;53.396;6.722;2023-06-04T09:15:11;4.68;;;1.80;;
52894;SDS011;38759;53.396;6.722;2023-06-04T09:17:37;3.95;;;1.60;;
52894;SDS011;38759;53.396;6.722;2023-06-04T09:20:02;5.45;;;1.83;;
52894;SDS011;38759;53.396;6.722;2023-06-04T09:22:35;4.53;;;1.90;;
52894;SDS011;38759;53.396;6.722;2023-06-04T09:25:03;5.43;;;2.15;;
52894;SDS011;38759;53.396;6.722;2023-06-04T09:27:38;7.03;;;2.20;;
52894;SDS011;38759;53.396;6.722;2023-06-04T09:30:05;6.82;;;2.00;;
52894;SDS011;38759;53.396;6.722;2023-06-04T09:32:33;3.65;;;1.70;;
52894;SDS011;38759;53.396;6.722;2023-06-04T09:35:17;7.78;;;1.77;;
52894;SDS011;38759;53.396;6.722;2023-06-04T09:37:56;7.93;;;1.93;;
52894;SDS011;38759;53.396;6.722;2023-06-04T09:40:22;5.70;;;2.40;;
52894;SDS011;38759;53.396;6.722;2023-06-04T09:42:49;4.82;;;2.00;;
52894;SDS011;38759;53.396;6.722;2023-06-04T09:45:28;6.50;;;2.25;;
52894;SDS011;38759;53.396;6.722;2023-06-04T09:47:58;3.95;;;1.85;;
52894;SDS011;38759;53.396;6.722;2023-06-04T09:50:25;3.47;;;1.70;;
52894;SDS011;38759;53.396;6.722;2023-06-04T09:52:59;4.47;;;2.03;;
52894;SDS011;38759;53.396;6.722;2023-06-04T09:55:25;7.13;;;2.30;;
52894;SDS011;38759;53.396;6.722;2023-06-04T09:57:52;6.10;;;2.05;;
52894;SDS011;38759;53.396;6.722;2023-06-04T10:00:18;6.57;;;1.80;;
52894;SDS011;38759;53.396;6.722;2023-06-04T10:02:46;4.53;;;1.88;;
52894;SDS011;38759;53.396;6.722;2023-06-04T10:05:13;7.68;;;2.30;;
52894;SDS011;38759;53.396;6.722;2023-06-04T10:07:43;5.20;;;1.88;;
52894;SDS011;38759;53.396;6.722;2023-06-04T10:10:15;4.35;;;1.92;;
52894;SDS011;38759;53.396;6.722;2023-06-04T10:12:42;5.80;;;2.08;;
52894;SDS011;38759;53.396;6.722;2023-06-04T10:15:12;6.90;;;2.00;;
52894;SDS011;38759;53.396;6.722;2023-06-04T10:17:38;5.95;;;2.35;;
52894;SDS011;38759;53.396;6.722;2023-06-04T10:20:09;5.50;;;2.05;;
52894;SDS011;38759;53.396;6.722;2023-06-04T10:22:36;3.90;;;1.75;;
52894;SDS011;38759;53.396;6.722;2023-06-04T10:25:03;5.20;;;1.98;;
52894;SDS011;38759;53.396;6.722;2023-06-04T10:27:32;5.18;;;1.77;;
52894;SDS011;38759;53.396;6.722;2023-06-04T10:30:01;6.47;;;1.98;;
52894;SDS011;38759;53.396;6.722;2023-06-04T10:32:28;4.47;;;1.77;;
52894;SDS011;38759;53.396;6.722;2023-06-04T10:34:55;5.00;;;2.00;;
52894;SDS011;38759;53.396;6.722;2023-06-04T10:37:25;4.68;;;1.90;;
52894;SDS011;38759;53.396;6.722;2023-06-04T10:39:52;4.43;;;1.67;;
52894;SDS011;38759;53.396;6.722;2023-06-04T10:42:19;6.97;;;2.03;;
52894;SDS011;38759;53.396;6.722;2023-06-04T10:44:53;2.95;;;1.50;;
52894;SDS011;38759;53.396;6.722;2023-06-04T10:49:46;5.32;;;1.67;;
52894;SDS011;38759;53.396;6.722;2023-06-04T10:52:12;3.80;;;1.77;;
52894;SDS011;38759;53.396;6.722;2023-06-04T10:54:37;3.55;;;1.77;;
52894;SDS011;38759;53.396;6.722;2023-06-04T10:57:12;4.90;;;1.88;;
52894;SDS011;38759;53.396;6.722;2023-06-04T10:59:39;4.32;;;1.90;;
52894;SDS011;38759;53.396;6.722;2023-06-04T11:02:05;4.28;;;1.73;;
52894;SDS011;38759;53.396;6.722;2023-06-04T11:04:32;8.63;;;2.03;;
52894;SDS011;38759;53.396;6.722;2023-06-04T11:09:28;5.53;;;2.03;;
52894;SDS011;38759;53.396;6.722;2023-06-04T11:11:58;2.97;;;1.58;;
52894;SDS011;38759;53.396;6.722;2023-06-04T11:14:24;6.72;;;2.20;;
52894;SDS011;38759;53.396;6.722;2023-06-04T11:16:50;7.18;;;2.08;;
52894;SDS011;38759;53.396;6.722;2023-06-04T11:19:15;4.70;;;1.80;;
52894;SDS011;38759;53.396;6.722;2023-06-04T11:21:41;4.15;;;1.83;;
52894;SDS011;38759;53.396;6.722;2023-06-04T11:24:07;6.75;;;2.10;;
52894;SDS011;38759;53.396;6.722;2023-06-04T11:26:33;7.32;;;2.15;;
52894;SDS011;38759;53.396;6.722;2023-06-04T11:29:00;5.65;;;1.80;;
52894;SDS011;38759;53.396;6.722;2023-06-04T11:31:27;9.68;;;2.10;;
52894;SDS011;38759;53.396;6.722;2023-06-04T11:33:53;4.78;;;1.90;;
52894;SDS011;38759;53.396;6.722;2023-06-04T11:36:25;4.45;;;1.90;;
52894;SDS011;38759;53.396;6.722;2023-06-04T11:38:58;6.45;;;1.90;;
52894;SDS011;38759;53.396;6.722;2023-06-04T11:41:31;6.38;;;1.92;;
52894;SDS011;38759;53.396;6.722;2023-06-04T11:44:01;5.05;;;1.98;;
52894;SDS011;38759;53.396;6.722;2023-06-04T11:46:34;3.97;;;1.70;;
52894;SDS011;38759;53.396;6.722;2023-06-04T11:49:02;4.93;;;1.77;;
52894;SDS011;38759;53.396;6.722;2023-06-04T11:51:28;5.63;;;1.92;;
52894;SDS011;38759;53.396;6.722;2023-06-04T11:53:54;8.13;;;2.15;;
52894;SDS011;38759;53.396;6.722;2023-06-04T11:56:20;6.28;;;1.98;;
52894;SDS011;38759;53.396;6.722;2023-06-04T11:58:48;6.72;;;1.75;;
52894;SDS011;38759;53.396;6.722;2023-06-04T12:01:14;7.38;;;1.98;;
52894;SDS011;38759;53.396;6.722;2023-06-04T12:03:41;4.70;;;1.60;;
52894;SDS011;38759;53.396;6.722;2023-06-04T12:06:17;7.95;;;2.05;;
52894;SDS011;38759;53.396;6.722;2023-06-04T12:08:51;5.22;;;1.90;;
52894;SDS011;38759;53.396;6.722;2023-06-04T12:11:25;4.25;;;1.70;;
52894;SDS011;38759;53.396;6.722;2023-06-04T12:13:52;6.47;;;2.05;;
52894;SDS011;38759;53.396;6.722;2023-06-04T12:16:32;3.85;;;1.88;;
52894;SDS011;38759;53.396;6.722;2023-06-04T12:19:08;5.40;;;1.95;;
52894;SDS011;38759;53.396;6.722;2023-06-04T12:21:35;4.45;;;1.88;;
52894;SDS011;38759;53.396;6.722;2023-06-04T12:26:33;4.75;;;1.85;;
52894;SDS011;38759;53.396;6.722;2023-06-04T12:29:12;6.03;;;2.15;;
52894;SDS011;38759;53.396;6.722;2023-06-04T12:31:46;4.45;;;1.90;;
52894;SDS011;38759;53.396;6.722;2023-06-04T12:34:14;4.93;;;1.90;;
52894;SDS011;38759;53.396;6.722;2023-06-04T12:36:42;6.13;;;1.90;;
52894;SDS011;38759;53.396;6.722;2023-06-04T12:39:08;5.05;;;1.90;;
52894;SDS011;38759;53.396;6.722;2023-06-04T12:41:34;8.98;;;1.92;;
52894;SDS011;38759;53.396;6.722;2023-06-04T12:44:00;5.10;;;2.00;;
52894;SDS011;38759;53.396;6.722;2023-06-04T12:46:26;4.63;;;2.10;;
52894;SDS011;38759;53.396;6.722;2023-06-04T12:48:53;4.95;;;2.15;;
52894;SDS011;38759;53.396;6.722;2023-06-04T12:51:19;6.85;;;2.30;;
52894;SDS011;38759;53.396;6.722;2023-06-04T12:53:46;4.38;;;1.92;;
52894;SDS011;38759;53.396;6.722;2023-06-04T12:56:12;5.13;;;2.03;;
52894;SDS011;38759;53.396;6.722;2023-06-04T12:58:38;6.40;;;1.98;;
52894;SDS011;38759;53.396;6.722;2023-06-04T13:01:04;5.05;;;1.88;;
52894;SDS011;38759;53.396;6.722;2023-06-04T13:03:30;4.63;;;1.88;;
52894;SDS011;38759;53.396;6.722;2023-06-04T13:05:56;4.97;;;1.70;;
52894;SDS011;38759;53.396;6.722;2023-06-04T13:08:22;8.27;;;1.85;;
52894;SDS011;38759;53.396;6.722;2023-06-04T13:10:49;5.45;;;2.00;;
52894;SDS011;38759;53.396;6.722;2023-06-04T13:13:16;4.97;;;1.77;;
52894;SDS011;38759;53.396;6.722;2023-06-04T13:15:43;5.18;;;1.98;;
52894;SDS011;38759;53.396;6.722;2023-06-04T13:18:09;5.55;;;1.95;;
52894;SDS011;38759;53.396;6.722;2023-06-04T13:20:35;6.05;;;1.95;;
52894;SDS011;38759;53.396;6.722;2023-06-04T13:23:01;6.50;;;2.03;;
52894;SDS011;38759;53.396;6.722;2023-06-04T13:25:27;4.18;;;1.90;;
52894;SDS011;38759;53.396;6.722;2023-06-04T13:27:54;4.97;;;1.92;;
52894;SDS011;38759;53.396;6.722;2023-06-04T13:30:20;3.10;;;1.45;;
52894;SDS011;38759;53.396;6.722;2023-06-04T13:32:46;3.22;;;1.60;;
52894;SDS011;38759;53.396;6.722;2023-06-04T13:35:12;4.53;;;1.70;;
52894;SDS011;38759;53.396;6.722;2023-06-04T13:37:38;9.43;;;1.92;;
52894;SDS011;38759;53.396;6.722;2023-06-04T13:40:04;4.28;;;1.90;;
52894;SDS011;38759;53.396;6.722;2023-06-04T13:42:30;5.20;;;1.80;;
52894;SDS011;38759;53.396;6.722;2023-06-04T13:44:56;4.30;;;1.70;;
52894;SDS011;38759;53.396;6.722;2023-06-04T13:47:21;4.22;;;1.70;;
52894;SDS011;38759;53.396;6.722;2023-06-04T13:49:47;5.90;;;1.77;;
52894;SDS011;38759;53.396;6.722;2023-06-04T13:52:13;4.00;;;1.60;;
52894;SDS011;38759;53.396;6.722;2023-06-04T13:54:38;6.75;;;2.10;;
52894;SDS011;38759;53.396;6.722;2023-06-04T13:57:04;3.90;;;1.80;;
52894;SDS011;38759;53.396;6.722;2023-06-04T13:59:32;6.28;;;1.90;;
52894;SDS011;38759;53.396;6.722;2023-06-04T14:01:58;6.82;;;2.00;;
52894;SDS011;38759;53.396;6.722;2023-06-04T14:04:24;4.35;;;1.60;;
52894;SDS011;38759;53.396;6.722;2023-06-04T14:06:50;7.50;;;1.83;;
52894;SDS011;38759;53.396;6.722;2023-06-04T14:09:15;5.22;;;1.92;;
52894;SDS011;38759;53.396;6.722;2023-06-04T14:11:41;5.13;;;1.83;;
52894;SDS011;38759;53.396;6.722;2023-06-04T14:14:07;5.90;;;2.05;;
52894;SDS011;38759;53.396;6.722;2023-06-04T14:16:33;6.03;;;2.05;;
52894;SDS011;38759;53.396;6.722;2023-06-04T14:18:59;4.68;;;1.90;;
52894;SDS011;38759;53.396;6.722;2023-06-04T14:21:24;5.90;;;2.00;;
52894;SDS011;38759;53.396;6.722;2023-06-04T14:23:51;6.30;;;2.10;;
52894;SDS011;38759;53.396;6.722;2023-06-04T14:26:18;4.68;;;1.83;;
52894;SDS011;38759;53.396;6.722;2023-06-04T14:28:44;8.18;;;2.40;;
52894;SDS011;38759;53.396;6.722;2023-06-04T14:31:09;4.90;;;2.05;;
52894;SDS011;38759;53.396;6.722;2023-06-04T14:33:35;6.20;;;2.03;;
52894;SDS011;38759;53.396;6.722;2023-06-04T14:36:02;5.40;;;2.15;;
52894;SDS011;38759;53.396;6.722;2023-06-04T14:38:29;5.75;;;1.80;;
52894;SDS011;38759;53.396;6.722;2023-06-04T14:40:55;6.05;;;2.20;;
52894;SDS011;38759;53.396;6.722;2023-06-04T14:43:21;4.65;;;2.03;;
52894;SDS011;38759;53.396;6.722;2023-06-04T14:45:48;8.27;;;1.92;;
52894;SDS011;38759;53.396;6.722;2023-06-04T14:48:13;4.85;;;2.08;;
52894;SDS011;38759;53.396;6.722;2023-06-04T14:50:39;6.55;;;2.30;;
52894;SDS011;38759;53.396;6.722;2023-06-04T14:53:05;7.65;;;1.90;;
52894;SDS011;38759;53.396;6.722;2023-06-04T14:55:32;5.78;;;1.95;;
52894;SDS011;38759;53.396;6.722;2023-06-04T14:57:59;6.00;;;2.00;;
52894;SDS011;38759;53.396;6.722;2023-06-04T15:00:25;6.25;;;2.17;;
52894;SDS011;38759;53.396;6.722;2023-06-04T15:02:51;7.13;;;2.13;;